createdAt,value
2022-11-23T00:02:09.282Z,21.10
2022-11-23T00:05:10.793Z,20.60
2022-11-23T00:08:12.830Z,20.70
2022-11-23T00:11:15.077Z,20.60
2022-11-23T00:14:16.451Z,20.90
2022-11-23T00:17:17.853Z,20.90
2022-11-23T00:20:19.514Z,20.90
2022-11-23T00:23:21.563Z,20.80
2022-11-23T00:26:23.327Z,20.60
2022-11-23T00:29:24.725Z,20.60
2022-11-23T00:32:28.403Z,20.80
2022-11-23T00:35:29.889Z,20.90
2022-11-23T00:38:32.093Z,20.80
2022-11-23T00:41:33.623Z,20.60
2022-11-23T00:44:37.209Z,20.50
2022-11-23T00:47:40.914Z,20.60
2022-11-23T00:50:42.321Z,20.70
2022-11-23T00:53:44.754Z,20.90
2022-11-23T00:56:46.356Z,20.80
2022-11-23T00:59:47.887Z,20.50
2022-11-23T01:02:49.334Z,21.00
2022-11-23T01:05:50.772Z,20.40
2022-11-23T01:08:54.442Z,21.00
2022-11-23T01:11:56.917Z,21.30
2022-11-23T01:14:58.463Z,21.00
2022-11-23T01:17:59.916Z,21.20
2022-11-23T01:21:01.877Z,20.80
2022-11-23T01:24:06.943Z,20.90
2022-11-23T01:27:09.116Z,20.50
2022-11-23T01:30:10.866Z,21.00
2022-11-23T01:33:12.833Z,20.90
2022-11-23T01:36:16.746Z,20.80
2022-11-23T01:39:19.171Z,20.80
2022-11-23T01:42:20.564Z,21.00
2022-11-23T01:45:35.874Z,20.80
2022-11-23T01:48:42.326Z,20.80
2022-11-23T01:51:47.666Z,21.00
2022-11-23T01:54:52.787Z,20.80
2022-11-23T01:57:55.465Z,20.80
2022-11-23T02:00:58.170Z,20.70
2022-11-23T02:04:01.460Z,21.00
2022-11-23T02:07:04.296Z,20.30
2022-11-23T02:10:07.237Z,20.80
2022-11-23T02:13:11.745Z,20.90
2022-11-23T02:16:14.120Z,20.70
2022-11-23T02:19:25.167Z,20.80
2022-11-23T02:22:34.583Z,20.90
2022-11-23T02:25:42.659Z,21.20
2022-11-23T02:28:48.738Z,20.50
2022-11-23T02:31:50.244Z,21.00
2022-11-23T02:34:51.777Z,20.80
2022-11-23T02:37:53.852Z,20.50
2022-11-23T02:40:55.706Z,20.80
2022-11-23T02:43:57.833Z,20.90
2022-11-23T02:47:00.865Z,20.80
2022-11-23T02:50:02.472Z,20.60
2022-11-23T02:53:03.936Z,20.80
2022-11-23T02:56:06.974Z,20.60
2022-11-23T02:59:09.132Z,21.50
2022-11-23T03:02:10.574Z,20.80
2022-11-23T03:05:12.150Z,21.30
2022-11-23T03:08:13.613Z,20.80
2022-11-23T03:11:16.140Z,20.70
2022-11-23T03:14:18.188Z,20.40
2022-11-23T03:17:28.149Z,20.80
2022-11-23T03:20:29.531Z,20.40
2022-11-23T03:23:31.501Z,20.60
2022-11-23T03:26:35.746Z,20.40
2022-11-23T03:29:44.752Z,20.90
2022-11-23T03:32:51.505Z,20.80
2022-11-23T03:35:54.150Z,20.50
2022-11-23T03:39:00.517Z,20.70
2022-11-23T03:42:21.358Z,20.60
2022-11-23T03:45:23.526Z,20.70
2022-11-23T03:48:24.946Z,20.90
2022-11-23T03:51:27.067Z,20.80
2022-11-23T03:54:29.675Z,20.50
2022-11-23T03:57:30.993Z,21.00
2022-11-23T04:00:35.656Z,20.50
2022-11-23T04:03:37.910Z,20.80
2022-11-23T04:06:48.528Z,20.70
2022-11-23T04:09:53.971Z,20.30
2022-11-23T04:13:01.849Z,20.80
2022-11-23T04:16:06.481Z,20.50
2022-11-23T04:19:08.244Z,20.70
2022-11-23T04:22:10.608Z,20.80
2022-11-23T04:25:16.723Z,20.70
2022-11-23T04:28:18.486Z,20.80
2022-11-23T04:31:22.626Z,20.60
2022-11-23T04:34:32.433Z,20.80
2022-11-23T04:37:37.232Z,20.70
2022-11-23T04:40:38.780Z,20.60
2022-11-23T04:43:42.216Z,20.90
2022-11-23T04:46:44.228Z,20.70
2022-11-23T04:49:48.092Z,20.70
2022-11-23T04:52:50.054Z,20.90
2022-11-23T04:55:56.182Z,20.90
2022-11-23T04:58:57.887Z,20.70
2022-11-23T05:02:00.283Z,20.80
2022-11-23T05:05:17.699Z,20.90
2022-11-23T05:08:19.252Z,21.20
2022-11-23T05:11:28.326Z,20.40
2022-11-23T05:14:32.992Z,20.80
2022-11-23T05:17:35.591Z,21.10
2022-11-23T05:20:39.834Z,21.00
2022-11-23T05:23:41.662Z,20.70
2022-11-23T05:26:42.996Z,20.80
2022-11-23T05:29:44.642Z,20.80
2022-11-23T05:32:47.134Z,20.80
2022-11-23T05:35:48.759Z,20.90
2022-11-23T05:38:51.634Z,20.90
2022-11-23T05:42:00.538Z,20.60
2022-11-23T05:45:11.522Z,20.80
2022-11-23T05:48:18.313Z,20.70
2022-11-23T05:51:26.703Z,20.40
2022-11-23T05:54:28.081Z,20.90
2022-11-23T05:57:36.603Z,20.70
2022-11-23T06:00:40.451Z,20.90
2022-11-23T06:03:44.015Z,20.80
2022-11-23T06:06:45.668Z,20.50
2022-11-23T06:09:47.245Z,20.70
2022-11-23T06:12:49.220Z,20.40
2022-11-23T06:15:53.066Z,20.90
2022-11-23T06:19:00.224Z,20.80
2022-11-23T06:22:01.685Z,20.80
2022-11-23T06:25:07.510Z,20.80
2022-11-23T06:28:20.522Z,20.70
2022-11-23T06:31:23.912Z,20.80
2022-11-23T06:34:25.870Z,20.60
2022-11-23T06:37:27.423Z,20.10
2022-11-23T06:40:30.505Z,20.50
2022-11-23T06:43:33.313Z,20.60
2022-11-23T06:46:35.478Z,20.70
2022-11-23T06:49:37.470Z,20.70
2022-11-23T06:52:48.092Z,20.80
2022-11-23T06:55:51.109Z,20.40
2022-11-23T06:58:54.547Z,20.60
2022-11-23T07:02:00.582Z,20.50
2022-11-23T07:05:08.706Z,20.50
2022-11-23T07:08:11.686Z,21.00
2022-11-23T07:11:14.481Z,20.20
2022-11-23T07:14:16.090Z,20.80
2022-11-23T07:17:21.065Z,20.80
2022-11-23T07:20:23.055Z,20.80
2022-11-23T07:23:24.872Z,20.60
2022-11-23T07:26:26.433Z,21.00
2022-11-23T07:29:27.740Z,20.40
2022-11-23T07:32:29.791Z,20.90
2022-11-23T07:35:32.341Z,20.90
2022-11-23T07:38:33.806Z,21.10
2022-11-23T07:41:37.454Z,20.90
2022-11-23T07:44:42.648Z,20.40
2022-11-23T07:47:45.294Z,20.70
2022-11-23T07:50:47.315Z,20.40
2022-11-23T07:53:48.761Z,21.00
2022-11-23T07:56:50.040Z,20.90
2022-11-23T07:59:51.561Z,21.10
2022-11-23T08:03:25.506Z,21.00
2022-11-23T08:06:15.790Z,20.80
2022-11-23T08:09:17.442Z,21.10
2022-11-23T08:12:20.958Z,21.20
2022-11-23T08:15:23.294Z,21.10
2022-11-23T08:18:24.728Z,21.30
2022-11-23T08:21:26.723Z,21.20
2022-11-23T08:24:28.211Z,21.30
2022-11-23T08:27:29.687Z,21.80
2022-11-23T08:30:32.582Z,21.60
2022-11-23T08:33:35.852Z,20.90
2022-11-23T08:36:37.724Z,20.80
2022-11-23T08:39:39.310Z,21.60
2022-11-23T08:42:42.394Z,21.30
2022-11-23T08:45:44.086Z,21.50
2022-11-23T08:48:45.569Z,21.50
2022-11-23T08:51:50.279Z,21.20
2022-11-23T08:54:51.985Z,21.50
2022-11-23T08:58:00.120Z,21.40
2022-11-23T09:01:02.374Z,21.60
2022-11-23T09:04:04.243Z,21.10
2022-11-23T09:07:06.424Z,21.50
2022-11-23T09:10:08.208Z,21.50
2022-11-23T09:13:10.093Z,21.60
2022-11-23T09:16:11.577Z,21.70
2022-11-23T09:19:13.343Z,21.40
2022-11-23T09:22:15.264Z,22.00
2022-11-23T09:25:16.973Z,22.20
2022-11-23T09:28:19.071Z,21.90
2022-11-23T09:31:20.607Z,21.60
2022-11-23T09:34:22.425Z,21.70
2022-11-23T09:37:24.679Z,21.50
2022-11-23T09:40:29.745Z,21.90
2022-11-23T09:43:41.397Z,22.00
2022-11-23T09:46:48.485Z,21.40
2022-11-23T09:50:02.481Z,21.40
2022-11-23T09:53:11.748Z,21.90
2022-11-23T09:56:18.037Z,21.80
2022-11-23T09:59:31.121Z,21.60
2022-11-23T10:02:40.942Z,21.80
2022-11-23T10:05:47.647Z,21.60
2022-11-23T10:09:12.847Z,22.20
2022-11-23T10:12:30.002Z,22.10
2022-11-23T10:15:38.960Z,21.70
2022-11-23T10:18:49.908Z,22.00
2022-11-23T10:22:01.717Z,22.30
2022-11-23T10:25:13.952Z,22.00
2022-11-23T10:28:24.204Z,21.90
2022-11-23T10:31:33.328Z,22.10
2022-11-23T10:34:48.540Z,22.40
2022-11-23T10:37:53.459Z,21.90
2022-11-23T10:41:02.605Z,22.20
2022-11-23T10:44:18.649Z,22.00
2022-11-23T10:47:35.306Z,22.00
2022-11-23T10:50:40.159Z,22.20
2022-11-23T10:53:42.100Z,22.00
2022-11-23T10:56:47.443Z,21.70
2022-11-23T10:59:58.812Z,22.40
2022-11-23T11:03:01.622Z,22.00
2022-11-23T11:06:09.071Z,22.10
2022-11-23T11:09:20.592Z,22.20
2022-11-23T11:12:22.691Z,21.60
2022-11-23T11:15:24.217Z,22.20
2022-11-23T11:18:29.639Z,22.30
2022-11-23T11:21:33.912Z,22.40
2022-11-23T11:24:38.060Z,22.30
2022-11-23T11:27:51.295Z,22.40
2022-11-23T11:31:02.684Z,22.30
2022-11-23T11:34:14.571Z,21.90
2022-11-23T11:37:24.063Z,22.10
2022-11-23T11:40:31.587Z,22.30
2022-11-23T11:43:40.013Z,21.90
2022-11-23T11:46:47.674Z,22.00
2022-11-23T11:49:53.518Z,22.30
2022-11-23T11:53:01.708Z,22.30
2022-11-23T11:56:11.344Z,21.70
2022-11-23T11:59:19.691Z,22.20
2022-11-23T12:02:24.502Z,22.30
2022-11-23T12:05:32.195Z,22.10
2022-11-23T12:08:43.172Z,22.20
2022-11-23T12:11:44.824Z,21.90
2022-11-23T12:14:46.898Z,22.40
2022-11-23T12:18:11.842Z,22.10
2022-11-23T12:21:28.792Z,22.40
2022-11-23T12:24:48.725Z,22.10
2022-11-23T12:28:03.364Z,22.20
2022-11-23T12:31:13.643Z,22.40
2022-11-23T12:34:31.804Z,22.20
2022-11-23T12:37:42.810Z,22.20
2022-11-23T12:41:05.663Z,22.10
2022-11-23T12:44:39.518Z,22.60
2022-11-23T12:47:49.831Z,22.10
2022-11-23T12:51:00.057Z,21.90
2022-11-23T12:57:52.181Z,22.00
2022-11-23T13:00:57.846Z,22.00
2022-11-23T13:04:26.273Z,21.70
2022-11-23T13:07:49.063Z,21.80
2022-11-23T13:11:03.708Z,22.10
2022-11-23T13:14:17.012Z,22.10
2022-11-23T13:17:29.314Z,22.90
2022-11-23T13:20:54.944Z,22.20
2022-11-23T13:23:56.772Z,22.20
2022-11-23T13:27:28.290Z,21.90
2022-11-23T13:30:59.104Z,22.00
2022-11-23T13:33:58.483Z,21.40
2022-11-23T13:37:17.580Z,22.40
2022-11-23T13:40:23.409Z,21.90
2022-11-23T13:43:28.483Z,21.90
2022-11-23T13:46:38.013Z,21.90
2022-11-23T13:49:45.824Z,22.40
2022-11-23T13:52:58.541Z,22.10
2022-11-23T13:56:24.318Z,21.60
2022-11-23T13:59:34.370Z,22.40
2022-11-23T14:02:36.277Z,22.30
2022-11-23T14:05:56.789Z,22.00
2022-11-23T14:09:06.421Z,22.10
2022-11-23T14:12:28.440Z,22.10
2022-11-23T14:15:57.950Z,22.30
2022-11-23T14:19:16.659Z,22.20
2022-11-23T14:22:48.883Z,22.00
2022-11-23T14:26:20.624Z,22.20
2022-11-23T14:29:58.078Z,22.00
2022-11-23T14:33:26.541Z,22.40
2022-11-23T14:36:41.871Z,21.70
2022-11-23T14:39:59.696Z,22.20
2022-11-23T14:43:05.127Z,22.50
2022-11-23T14:46:19.490Z,22.40
2022-11-23T14:49:38.420Z,22.30
2022-11-23T14:52:48.021Z,22.30
2022-11-23T14:55:51.456Z,22.20
2022-11-23T14:59:17.819Z,22.60
2022-11-23T15:02:35.648Z,22.00
2022-11-23T15:05:48.748Z,22.40
2022-11-23T15:09:01.239Z,22.00
2022-11-23T15:12:05.648Z,22.00
2022-11-23T15:15:19.867Z,22.10
2022-11-23T15:18:35.008Z,22.20
2022-11-23T15:21:39.941Z,21.80
2022-11-23T15:24:45.373Z,22.30
2022-11-23T15:27:48.567Z,22.20
2022-11-23T15:30:59.258Z,22.00
2022-11-23T15:34:04.635Z,22.50
2022-11-23T15:37:10.001Z,22.20
2022-11-23T15:40:14.642Z,22.30
2022-11-23T15:43:18.481Z,22.70
2022-11-23T15:46:24.853Z,21.70
2022-11-23T15:49:26.636Z,22.60
2022-11-23T15:52:32.260Z,22.40
2022-11-23T15:55:34.691Z,22.30
2022-11-23T15:58:36.289Z,22.30
2022-11-23T16:01:38.528Z,22.80
2022-11-23T16:04:43.717Z,22.60
2022-11-23T16:08:01.596Z,22.90
2022-11-23T16:11:22.453Z,22.30
2022-11-23T16:14:31.988Z,22.70
2022-11-23T16:17:34.355Z,22.20
2022-11-23T16:20:35.995Z,22.40
2022-11-23T16:23:44.191Z,22.80
2022-11-23T16:26:45.804Z,22.70
2022-11-23T16:29:51.024Z,22.40
2022-11-23T16:32:53.354Z,22.40
2022-11-23T16:35:56.522Z,22.80
2022-11-23T16:39:03.993Z,22.00
2022-11-23T16:42:10.183Z,22.30
2022-11-23T16:45:11.908Z,22.10
2022-11-23T16:48:38.710Z,22.30
2022-11-23T16:51:41.960Z,22.20
2022-11-23T16:54:45.279Z,22.70
2022-11-23T16:57:51.583Z,22.40
2022-11-23T17:00:54.492Z,22.90
2022-11-23T17:03:56.617Z,22.90
2022-11-23T17:06:58.486Z,22.60
2022-11-23T17:10:00.203Z,23.10
2022-11-23T17:13:03.336Z,22.80
2022-11-23T17:16:16.322Z,22.80
2022-11-23T17:19:20.199Z,22.10
2022-11-23T17:22:22.049Z,22.50
2022-11-23T17:25:23.693Z,22.60
2022-11-23T17:28:27.227Z,22.90
2022-11-23T17:31:29.032Z,22.50
2022-11-23T17:34:31.127Z,22.60
2022-11-23T17:37:33.904Z,22.40
2022-11-23T17:40:36.338Z,22.40
2022-11-23T17:43:39.388Z,22.80
2022-11-23T17:46:41.754Z,23.30
2022-11-23T17:49:43.832Z,22.70
2022-11-23T17:52:48.355Z,22.80
2022-11-23T17:55:50.029Z,22.50
2022-11-23T17:58:52.061Z,22.80
2022-11-23T18:01:53.855Z,22.20
2022-11-23T18:04:59.035Z,22.70
2022-11-23T18:08:07.800Z,21.90
2022-11-23T18:11:10.513Z,22.70
2022-11-23T18:14:12.863Z,22.10
2022-11-23T18:17:16.688Z,22.30
2022-11-23T18:20:23.729Z,22.20
2022-11-23T18:23:25.540Z,22.30
2022-11-23T18:26:29.433Z,22.70
2022-11-23T18:29:33.511Z,23.30
2022-11-23T18:32:42.043Z,22.60
2022-11-23T18:35:46.399Z,21.90
2022-11-23T18:38:48.188Z,22.90
2022-11-23T18:41:49.792Z,22.20
2022-11-23T18:44:51.289Z,22.50
2022-11-23T18:47:52.570Z,22.60
2022-11-23T18:50:54.591Z,23.00
2022-11-23T18:53:56.969Z,22.50
2022-11-23T18:56:58.420Z,22.50
2022-11-23T18:59:59.763Z,22.50
2022-11-23T19:03:02.008Z,22.50
2022-11-23T19:06:05.362Z,22.50
2022-11-23T19:09:06.829Z,22.40
2022-11-23T19:12:09.041Z,22.30
2022-11-23T19:15:11.158Z,22.00
2022-11-23T19:18:12.690Z,22.50
2022-11-23T19:21:16.962Z,22.40
2022-11-23T19:24:18.468Z,22.50
2022-11-23T19:27:19.933Z,22.00
2022-11-23T19:30:21.248Z,22.30
2022-11-23T19:33:22.787Z,21.90
2022-11-23T19:36:25.162Z,22.10
2022-11-23T19:39:26.789Z,22.20
2022-11-23T19:42:28.580Z,22.20
2022-11-23T19:45:30.021Z,22.10
2022-11-23T19:48:32.017Z,22.30
2022-11-23T19:51:34.215Z,22.10
2022-11-23T19:54:35.623Z,22.10
2022-11-23T19:57:36.848Z,22.10
2022-11-23T20:00:39.046Z,21.60
2022-11-23T20:03:42.338Z,22.00
2022-11-23T20:06:44.425Z,22.10
2022-11-23T20:09:46.044Z,21.90
2022-11-23T20:12:47.656Z,21.90
2022-11-23T20:15:49.452Z,21.90
2022-11-23T20:18:56.133Z,21.80
2022-11-23T20:21:58.077Z,21.50
2022-11-23T20:24:59.929Z,22.00
2022-11-23T20:28:01.495Z,22.40
2022-11-23T20:31:03.833Z,21.90
2022-11-23T20:34:07.807Z,21.80
2022-11-23T20:37:10.938Z,21.80
2022-11-23T20:40:12.816Z,21.70
2022-11-23T20:43:14.398Z,21.40
2022-11-23T20:46:31.696Z,21.20
2022-11-23T20:49:37.369Z,21.50
2022-11-23T20:52:39.527Z,21.70
2022-11-23T20:55:41.145Z,21.50
2022-11-23T20:58:43.355Z,21.60
2022-11-23T21:01:44.904Z,21.60
2022-11-23T21:04:46.392Z,21.70
2022-11-23T21:07:48.479Z,21.60
2022-11-23T21:11:03.207Z,21.60
2022-11-23T21:14:06.815Z,21.50
2022-11-23T21:17:08.519Z,21.60
2022-11-23T21:20:10.143Z,21.20
2022-11-23T21:23:12.513Z,21.50
2022-11-23T21:26:13.914Z,21.20
2022-11-23T21:29:15.628Z,21.60
2022-11-23T21:32:17.025Z,21.30
2022-11-23T21:35:18.718Z,21.50
2022-11-23T21:38:30.485Z,21.60
2022-11-23T21:41:32.142Z,21.60
2022-11-23T21:44:34.039Z,21.20
2022-11-23T21:47:35.660Z,21.40
2022-11-23T21:50:36.988Z,21.50
2022-11-23T21:53:41.052Z,21.40
2022-11-23T21:56:43.405Z,21.50
2022-11-23T21:59:44.834Z,21.50
2022-11-23T22:02:46.095Z,21.70
2022-11-23T22:05:55.532Z,21.60
2022-11-23T22:08:59.264Z,21.30
2022-11-23T22:12:00.706Z,20.90
2022-11-23T22:15:02.266Z,21.30
2022-11-23T22:18:03.727Z,21.10
2022-11-23T22:21:05.128Z,21.40
2022-11-23T22:24:11.027Z,21.40
2022-11-23T22:27:12.395Z,21.30
2022-11-23T22:30:14.701Z,21.40
2022-11-23T22:33:16.100Z,21.30
2022-11-23T22:36:19.903Z,21.30
2022-11-23T22:39:21.907Z,21.30
2022-11-23T22:42:23.299Z,21.50
2022-11-23T22:45:24.910Z,21.10
2022-11-23T22:48:26.357Z,21.30
2022-11-23T22:51:28.064Z,21.20
2022-11-23T22:54:30.034Z,21.20
2022-11-23T22:57:31.508Z,21.50
2022-11-23T23:00:32.748Z,21.40
2022-11-23T23:03:34.792Z,21.20
2022-11-23T23:06:37.555Z,21.70
2022-11-23T23:09:39.642Z,21.30
2022-11-23T23:12:41.009Z,21.20
2022-11-23T23:15:43.004Z,21.20
2022-11-23T23:18:44.770Z,21.40
2022-11-23T23:21:46.148Z,21.40
2022-11-23T23:24:48.115Z,21.40
2022-11-23T23:27:49.546Z,21.20
2022-11-23T23:30:50.913Z,21.30
2022-11-23T23:33:53.063Z,21.10
2022-11-23T23:36:54.664Z,21.00
2022-11-23T23:39:56.765Z,21.10
2022-11-23T23:42:58.180Z,21.20
2022-11-23T23:46:03.212Z,21.20
2022-11-23T23:49:04.764Z,21.00
2022-11-23T23:52:06.058Z,21.20
2022-11-23T23:55:08.935Z,21.20
2022-11-23T23:58:10.423Z,21.30
